createdAt,value
2022-09-07T00:00:59.260Z,22.73
2022-09-07T00:03:25.932Z,22.63
2022-09-07T00:05:52.496Z,22.54
2022-09-07T00:08:22.378Z,22.40
2022-09-07T00:10:59.916Z,22.08
2022-09-07T00:13:28.742Z,21.99
2022-09-07T00:15:55.280Z,21.87
2022-09-07T00:18:22.055Z,21.75
2022-09-07T00:21:04.884Z,21.64
2022-09-07T00:23:32.262Z,21.48
2022-09-07T00:26:00.920Z,21.39
2022-09-07T00:28:27.375Z,21.24
2022-09-07T00:30:54.020Z,21.19
2022-09-07T00:33:20.518Z,21.12
2022-09-07T00:35:47.156Z,21.05
2022-09-07T00:38:13.705Z,20.95
2022-09-07T00:40:40.341Z,20.86
2022-09-07T00:43:07.859Z,20.76
2022-09-07T00:45:34.243Z,20.71
2022-09-07T00:48:17.051Z,20.70
2022-09-07T00:50:53.406Z,20.64
2022-09-07T00:53:24.474Z,20.62
2022-09-07T00:55:53.032Z,20.62
2022-09-07T00:58:21.928Z,20.58
2022-09-07T01:03:42.984Z,20.55
2022-09-07T01:06:17.100Z,20.52
2022-09-07T01:08:45.021Z,20.50
2022-09-07T01:11:12.136Z,20.48
2022-09-07T01:13:43.907Z,20.47
2022-09-07T01:16:27.718Z,20.41
2022-09-07T01:19:11.568Z,20.29
2022-09-07T01:22:10.087Z,20.27
2022-09-07T01:24:58.224Z,20.21
2022-09-07T01:27:58.422Z,20.13
2022-09-07T01:30:25.923Z,20.06
2022-09-07T01:33:20.315Z,20.13
2022-09-07T01:36:03.624Z,20.10
2022-09-07T01:38:30.076Z,20.14
2022-09-07T01:41:11.592Z,20.19
2022-09-07T01:44:09.601Z,20.21
2022-09-07T01:47:02.703Z,20.21
2022-09-07T01:49:45.463Z,20.22
2022-09-07T01:52:19.090Z,20.22
2022-09-07T01:54:51.326Z,20.23
2022-09-07T01:57:30.498Z,20.22
2022-09-07T02:00:11.505Z,20.20
2022-09-07T02:02:48.832Z,20.13
2022-09-07T02:05:31.869Z,20.09
2022-09-07T02:08:04.900Z,20.05
2022-09-07T02:10:40.439Z,20.03
2022-09-07T02:13:13.628Z,19.99
2022-09-07T02:15:58.742Z,19.94
2022-09-07T02:18:30.691Z,19.88
2022-09-07T02:20:59.279Z,19.83
2022-09-07T02:23:30.430Z,19.78
2022-09-07T02:26:02.524Z,19.75
2022-09-07T02:28:32.679Z,19.72
2022-09-07T02:31:00.386Z,19.66
2022-09-07T02:33:28.226Z,19.65
2022-09-07T02:35:55.320Z,19.62
2022-09-07T02:38:22.087Z,19.59
2022-09-07T02:40:56.359Z,19.54
2022-09-07T02:43:25.042Z,19.46
2022-09-07T02:46:19.787Z,19.42
2022-09-07T02:49:01.897Z,19.40
2022-09-07T02:51:46.980Z,19.37
2022-09-07T02:54:42.741Z,19.36
2022-09-07T02:57:42.842Z,19.33
2022-09-07T03:00:20.698Z,19.29
2022-09-07T03:03:16.391Z,19.25
2022-09-07T03:05:50.325Z,19.21
2022-09-07T03:08:24.762Z,19.21
2022-09-07T03:10:53.611Z,19.19
2022-09-07T03:13:26.836Z,19.18
2022-09-07T03:15:56.002Z,19.15
2022-09-07T03:18:24.453Z,19.13
2022-09-07T03:20:50.971Z,19.08
2022-09-07T03:23:17.421Z,19.07
2022-09-07T03:25:44.152Z,19.06
2022-09-07T03:28:10.736Z,19.05
2022-09-07T03:30:41.575Z,19.02
2022-09-07T03:33:08.035Z,18.98
2022-09-07T03:35:34.420Z,18.98
2022-09-07T03:38:01.687Z,18.96
2022-09-07T03:40:28.088Z,18.96
2022-09-07T03:42:54.522Z,18.95
2022-09-07T03:45:20.962Z,18.96
2022-09-07T03:47:47.456Z,18.96
2022-09-07T03:50:13.889Z,18.95
2022-09-07T03:52:40.295Z,18.94
2022-09-07T03:55:07.039Z,18.92
2022-09-07T03:57:33.794Z,18.90
2022-09-07T04:00:00.243Z,18.89
2022-09-07T04:02:26.918Z,18.88
2022-09-07T04:04:53.352Z,18.90
2022-09-07T04:07:19.752Z,18.92
2022-09-07T04:09:46.159Z,18.95
2022-09-07T04:12:12.547Z,18.96
2022-09-07T04:14:38.982Z,18.92
2022-09-07T04:17:05.578Z,18.94
2022-09-07T04:19:32.171Z,18.91
2022-09-07T04:21:58.658Z,18.91
2022-09-07T04:24:25.202Z,18.86
2022-09-07T04:26:52.316Z,18.85
2022-09-07T04:29:18.699Z,18.84
2022-09-07T04:31:45.084Z,18.78
2022-09-07T04:34:11.889Z,18.77
2022-09-07T04:36:38.378Z,18.74
2022-09-07T04:39:05.385Z,18.71
2022-09-07T04:41:34.171Z,18.69
2022-09-07T04:44:01.935Z,18.63
2022-09-07T04:46:31.013Z,18.58
2022-09-07T04:48:59.569Z,18.54
2022-09-07T04:51:29.290Z,18.48
2022-09-07T04:53:57.462Z,18.46
2022-09-07T04:56:24.217Z,18.45
2022-09-07T04:58:51.168Z,18.43
2022-09-07T05:01:20.621Z,18.43
2022-09-07T05:03:47.624Z,18.39
2022-09-07T05:06:16.253Z,18.38
2022-09-07T05:08:45.607Z,18.35
2022-09-07T05:11:12.932Z,18.34
2022-09-07T05:13:39.967Z,18.32
2022-09-07T05:16:12.586Z,18.31
2022-09-07T05:18:39.102Z,18.26
2022-09-07T05:21:14.871Z,18.26
2022-09-07T05:23:42.208Z,18.23
2022-09-07T05:26:09.769Z,18.22
2022-09-07T05:28:37.026Z,18.21
2022-09-07T05:36:37.779Z,18.16
2022-09-07T05:39:05.728Z,18.18
2022-09-07T05:41:32.131Z,18.19
2022-09-07T05:46:45.038Z,18.20
2022-09-07T05:49:11.710Z,18.21
2022-09-07T05:51:38.787Z,18.21
2022-09-07T05:54:05.340Z,18.24
2022-09-07T05:56:35.280Z,18.29
2022-09-07T05:59:01.881Z,18.32
2022-09-07T06:01:28.336Z,18.37
2022-09-07T06:03:54.749Z,18.43
2022-09-07T06:06:21.607Z,18.48
2022-09-07T06:08:50.398Z,18.55
2022-09-07T06:11:20.541Z,18.63
2022-09-07T06:13:47.488Z,18.68
2022-09-07T06:16:15.195Z,18.76
2022-09-07T06:18:43.733Z,18.83
2022-09-07T06:21:13.196Z,18.90
2022-09-07T06:23:41.126Z,18.99
2022-09-07T06:26:08.293Z,19.03
2022-09-07T06:28:39.780Z,19.13
2022-09-07T06:31:11.957Z,19.21
2022-09-07T06:33:38.650Z,19.29
2022-09-07T06:36:08.051Z,19.41
2022-09-07T06:38:37.506Z,19.53
2022-09-07T06:43:54.433Z,19.73
2022-09-07T06:49:07.613Z,19.99
2022-09-07T06:51:34.092Z,20.13
2022-09-07T06:56:48.241Z,20.47
2022-09-07T06:59:14.660Z,20.63
2022-09-07T07:01:41.072Z,20.68
2022-09-07T07:04:07.481Z,20.79
2022-09-07T07:06:35.628Z,20.83
2022-09-07T07:09:03.430Z,20.72
2022-09-07T07:11:31.172Z,20.75
2022-09-07T07:13:58.169Z,20.68
2022-09-07T07:16:24.735Z,20.55
2022-09-07T07:18:55.690Z,20.43
2022-09-07T07:21:22.690Z,20.32
2022-09-07T07:23:53.652Z,20.34
2022-09-07T07:26:22.329Z,20.30
2022-09-07T07:29:06.813Z,20.25
2022-09-07T07:31:34.953Z,20.15
2022-09-07T07:34:01.964Z,20.13
2022-09-07T07:36:28.371Z,20.10
2022-09-07T07:44:17.831Z,20.19
2022-09-07T07:46:50.770Z,20.19
2022-09-07T07:49:17.567Z,20.16
2022-09-07T07:54:32.542Z,20.18
2022-09-07T07:56:58.905Z,20.19
2022-09-07T07:59:26.027Z,20.20
2022-09-07T08:01:52.482Z,20.27
2022-09-07T08:04:18.998Z,20.29
2022-09-07T08:06:45.352Z,20.29
2022-09-07T08:09:12.079Z,20.33
2022-09-07T08:11:40.066Z,20.46
2022-09-07T08:14:08.528Z,20.31
2022-09-07T08:16:36.263Z,20.38
2022-09-07T08:19:02.893Z,20.42
2022-09-07T08:21:29.807Z,20.50
2022-09-07T08:23:56.315Z,20.59
2022-09-07T08:26:22.774Z,20.64
2022-09-07T08:28:49.299Z,20.64
2022-09-07T08:31:16.533Z,20.66
2022-09-07T08:33:43.624Z,20.76
2022-09-07T08:36:13.323Z,20.85
2022-09-07T08:38:40.165Z,20.97
2022-09-07T08:41:30.747Z,21.02
2022-09-07T08:44:06.432Z,21.11
2022-09-07T08:46:38.419Z,21.12
2022-09-07T08:49:10.518Z,21.32
2022-09-07T08:51:43.329Z,21.45
2022-09-07T08:54:13.644Z,21.54
2022-09-07T08:57:20.506Z,21.75
2022-09-07T08:59:46.535Z,21.94
2022-09-07T09:02:34.020Z,22.12
2022-09-07T09:05:20.122Z,22.32
2022-09-07T09:07:55.505Z,22.47
2022-09-07T09:10:54.184Z,22.60
2022-09-07T09:13:52.069Z,22.65
2022-09-07T09:16:38.161Z,22.76
2022-09-07T09:19:28.119Z,22.90
2022-09-07T09:22:17.228Z,23.06
2022-09-07T09:24:51.740Z,23.18
2022-09-07T09:27:18.160Z,23.17
2022-09-07T09:29:44.674Z,23.36
2022-09-07T09:32:49.657Z,23.45
2022-09-07T09:35:23.538Z,23.58
2022-09-07T09:37:49.885Z,23.71
2022-09-07T09:40:30.049Z,23.85
2022-09-07T09:43:03.353Z,23.99
2022-09-07T09:48:32.982Z,24.23
2022-09-07T09:54:07.636Z,24.40
2022-09-07T09:56:39.569Z,24.39
2022-09-07T10:05:27.447Z,25.01
2022-09-07T10:07:54.460Z,25.20
2022-09-07T10:10:21.154Z,25.41
2022-09-07T10:12:47.604Z,25.70
2022-09-07T10:15:39.727Z,26.03
2022-09-07T10:18:16.029Z,26.25
2022-09-07T10:20:42.401Z,26.50
2022-09-07T10:23:20.717Z,26.65
2022-09-07T10:25:47.568Z,26.69
2022-09-07T10:28:17.882Z,26.73
2022-09-07T10:31:02.758Z,26.87
2022-09-07T10:36:58.974Z,27.23
2022-09-07T10:39:39.487Z,27.18
2022-09-07T10:42:29.422Z,27.53
2022-09-07T10:45:23.888Z,27.70
2022-09-07T10:48:20.791Z,27.76
2022-09-07T10:50:53.427Z,28.05
2022-09-07T10:57:03.491Z,27.82
2022-09-07T11:00:11.544Z,27.94
2022-09-07T11:06:04.342Z,28.11
2022-09-07T11:12:02.772Z,28.19
2022-09-07T11:14:37.121Z,28.02
2022-09-07T11:17:13.013Z,27.88
2022-09-07T11:20:14.890Z,27.77
2022-09-07T11:23:11.881Z,27.80
2022-09-07T11:25:46.644Z,28.08
2022-09-07T11:28:17.837Z,28.19
2022-09-07T11:30:50.024Z,28.43
2022-09-07T11:33:23.071Z,28.71
2022-09-07T11:36:03.532Z,28.84
2022-09-07T11:38:44.271Z,28.97
2022-09-07T11:41:16.384Z,29.10
2022-09-07T11:43:50.617Z,29.13
2022-09-07T11:46:29.527Z,29.20
2022-09-07T11:48:57.823Z,29.18
2022-09-07T11:51:46.398Z,29.35
2022-09-07T11:54:32.409Z,29.44
2022-09-07T11:57:08.799Z,29.53
2022-09-07T11:59:58.874Z,29.65
2022-09-07T12:03:02.712Z,29.62
2022-09-07T12:06:06.571Z,29.63
2022-09-07T12:09:06.940Z,29.71
2022-09-07T12:12:25.783Z,29.92
2022-09-07T12:15:33.732Z,30.03
2022-09-07T12:18:31.071Z,30.04
2022-09-07T12:20:57.682Z,30.26
2022-09-07T12:23:31.619Z,30.25
2022-09-07T12:26:35.831Z,30.21
2022-09-07T12:29:02.172Z,30.30
2022-09-07T12:31:58.583Z,30.28
2022-09-07T12:34:32.175Z,29.98
2022-09-07T12:37:00.193Z,30.14
2022-09-07T12:39:28.601Z,30.35
2022-09-07T12:45:28.747Z,30.62
2022-09-07T12:48:05.220Z,30.89
2022-09-07T12:50:40.290Z,31.14
2022-09-07T12:53:22.457Z,31.09
2022-09-07T12:56:16.421Z,31.21
2022-09-07T12:59:00.767Z,30.78
2022-09-07T13:01:32.355Z,30.53
2022-09-07T13:04:22.982Z,30.69
2022-09-07T13:07:20.437Z,30.97
2022-09-07T13:09:58.240Z,30.72
2022-09-07T13:12:57.773Z,30.52
2022-09-07T13:15:45.746Z,30.46
2022-09-07T13:18:27.616Z,30.29
2022-09-07T13:21:09.066Z,29.97
2022-09-07T13:23:38.972Z,29.83
2022-09-07T13:26:08.590Z,30.06
2022-09-07T13:28:40.944Z,30.20
2022-09-07T13:31:19.416Z,30.05
2022-09-07T13:33:48.826Z,29.98
2022-09-07T13:36:38.808Z,29.75
2022-09-07T13:39:09.544Z,29.89
2022-09-07T13:41:42.264Z,30.29
2022-09-07T13:44:25.020Z,30.27
2022-09-07T13:47:06.529Z,30.29
2022-09-07T13:50:00.741Z,30.48
2022-09-07T13:52:54.258Z,30.76
2022-09-07T13:55:31.764Z,30.59
2022-09-07T13:58:06.400Z,30.61
2022-09-07T14:00:33.858Z,30.64
2022-09-07T14:03:05.673Z,30.87
2022-09-07T14:05:32.157Z,31.06
2022-09-07T14:07:58.761Z,30.84
2022-09-07T14:10:26.372Z,30.42
2022-09-07T14:13:05.091Z,30.11
2022-09-07T14:15:41.695Z,30.16
2022-09-07T14:18:14.487Z,30.27
2022-09-07T14:20:45.408Z,30.40
2022-09-07T14:23:29.945Z,30.27
2022-09-07T14:26:18.565Z,30.47
2022-09-07T14:28:47.798Z,30.48
2022-09-07T14:31:17.074Z,30.11
2022-09-07T14:33:55.709Z,29.73
2022-09-07T14:36:44.213Z,29.42
2022-09-07T14:39:14.091Z,29.23
2022-09-07T14:41:42.013Z,29.28
2022-09-07T14:44:30.000Z,29.26
2022-09-07T14:46:59.119Z,29.15
2022-09-07T14:49:25.602Z,29.09
2022-09-07T14:51:53.778Z,29.12
2022-09-07T14:54:22.915Z,29.18
2022-09-07T14:57:11.650Z,29.37
2022-09-07T14:59:44.264Z,29.78
2022-09-07T15:02:19.795Z,30.31
2022-09-07T15:04:47.738Z,30.96
2022-09-07T15:07:37.944Z,31.70
2022-09-07T15:10:23.649Z,32.03
2022-09-07T15:12:55.200Z,32.26
2022-09-07T15:15:26.255Z,32.56
2022-09-07T15:17:55.588Z,32.52
2022-09-07T15:20:46.021Z,32.18
2022-09-07T15:23:17.786Z,32.18
2022-09-07T15:25:50.920Z,32.17
2022-09-07T15:34:16.753Z,32.10
2022-09-07T15:36:48.626Z,32.03
2022-09-07T15:39:19.204Z,31.77
2022-09-07T15:41:45.771Z,31.54
2022-09-07T15:44:13.750Z,31.13
2022-09-07T15:46:40.628Z,30.98
2022-09-07T15:49:07.279Z,30.87
2022-09-07T15:54:20.901Z,30.63
2022-09-07T15:59:34.091Z,30.30
2022-09-07T16:02:00.685Z,29.84
2022-09-07T16:04:28.594Z,29.44
2022-09-07T16:06:55.104Z,29.33
2022-09-07T16:09:22.058Z,29.07
2022-09-07T16:11:50.069Z,28.94
2022-09-07T16:14:17.462Z,28.88
2022-09-07T16:19:30.436Z,28.69
2022-09-07T16:21:57.609Z,28.65
2022-09-07T16:24:24.191Z,28.44
2022-09-07T16:26:50.563Z,28.30
2022-09-07T16:29:17.877Z,28.16
2022-09-07T16:34:30.769Z,27.80
2022-09-07T16:36:57.171Z,27.91
2022-09-07T16:39:23.573Z,27.79
2022-09-07T16:41:50.432Z,27.76
2022-09-07T16:44:16.904Z,27.63
2022-09-07T16:46:43.270Z,27.62
2022-09-07T16:49:11.065Z,28.02
2022-09-07T16:51:39.548Z,28.29
2022-09-07T16:54:06.563Z,28.53
2022-09-07T16:56:38.325Z,28.30
2022-09-07T16:59:06.892Z,28.25
2022-09-07T17:01:35.433Z,28.27
2022-09-07T17:04:05.542Z,28.20
2022-09-07T17:06:34.510Z,28.07
2022-09-07T17:09:00.872Z,28.01
2022-09-07T17:11:33.279Z,27.97
2022-09-07T17:14:00.694Z,27.89
2022-09-07T17:16:30.027Z,27.84
2022-09-07T17:21:46.466Z,27.84
2022-09-07T17:24:12.926Z,27.83
2022-09-07T17:26:42.320Z,27.71
2022-09-07T17:29:09.550Z,27.75
2022-09-07T17:34:24.501Z,27.64
2022-09-07T17:36:51.531Z,27.51
2022-09-07T17:39:19.280Z,27.33
2022-09-07T17:41:48.638Z,27.09
2022-09-07T17:44:15.493Z,27.04
2022-09-07T17:46:41.863Z,26.90
2022-09-07T17:49:16.361Z,26.74
2022-09-07T17:51:43.659Z,26.64
2022-09-07T17:54:14.894Z,26.56
2022-09-07T17:56:42.209Z,26.48
2022-09-07T18:01:56.148Z,26.32
2022-09-07T18:04:23.761Z,26.19
2022-09-07T18:06:50.570Z,26.15
2022-09-07T18:09:17.331Z,26.04
2022-09-07T18:11:45.544Z,25.96
2022-09-07T18:14:14.280Z,25.87
2022-09-07T18:16:41.255Z,25.78
2022-09-07T18:19:08.501Z,25.70
2022-09-07T18:21:37.317Z,25.62
2022-09-07T18:24:07.529Z,25.56
2022-09-07T18:26:38.284Z,25.50
2022-09-07T18:29:10.414Z,25.42
2022-09-07T18:31:45.831Z,25.34
2022-09-07T18:34:12.374Z,25.26
2022-09-07T18:36:40.699Z,25.17
2022-09-07T18:39:07.352Z,25.08
2022-09-07T18:41:34.809Z,24.99
2022-09-07T18:44:01.370Z,24.90
2022-09-07T18:46:28.284Z,24.82
2022-09-07T18:48:55.350Z,24.70
2022-09-07T18:51:21.897Z,24.55
2022-09-07T18:53:48.407Z,24.40
2022-09-07T18:56:21.089Z,24.23
2022-09-07T18:58:48.185Z,24.04
2022-09-07T19:01:16.595Z,23.86
2022-09-07T19:03:44.783Z,23.69
2022-09-07T19:06:15.186Z,23.51
2022-09-07T19:08:43.408Z,23.37
2022-09-07T19:11:37.335Z,23.28
2022-09-07T19:14:06.634Z,23.18
2022-09-07T19:16:33.195Z,23.11
2022-09-07T19:19:01.903Z,23.00
2022-09-07T19:21:33.704Z,22.92
2022-09-07T19:24:06.432Z,22.84
2022-09-07T19:26:39.488Z,22.75
2022-09-07T19:29:15.234Z,22.69
2022-09-07T19:31:44.873Z,22.65
2022-09-07T19:34:11.502Z,22.58
2022-09-07T19:36:38.513Z,22.53
2022-09-07T19:39:05.785Z,22.46
2022-09-07T19:41:33.647Z,22.38
2022-09-07T19:44:00.066Z,22.34
2022-09-07T19:46:26.506Z,22.31
2022-09-07T19:48:52.967Z,22.26
2022-09-07T19:51:19.873Z,22.21
2022-09-07T19:53:47.017Z,22.17
2022-09-07T19:56:15.875Z,22.14
2022-09-07T19:58:44.184Z,22.10
2022-09-07T20:01:17.167Z,22.09
2022-09-07T20:03:45.539Z,22.06
2022-09-07T20:06:14.628Z,22.06
2022-09-07T20:08:42.634Z,22.00
2022-09-07T20:11:11.910Z,21.98
2022-09-07T20:13:39.422Z,21.94
2022-09-07T20:16:14.190Z,21.90
2022-09-07T20:18:40.902Z,21.82
2022-09-07T20:21:09.885Z,21.79
2022-09-07T20:23:36.396Z,21.74
2022-09-07T20:26:08.955Z,21.69
2022-09-07T20:28:36.705Z,21.61
2022-09-07T20:31:08.410Z,21.56
2022-09-07T20:33:35.380Z,21.50
2022-09-07T20:36:06.158Z,21.48
2022-09-07T20:38:38.152Z,21.45
2022-09-07T20:41:04.547Z,21.41
2022-09-07T20:43:31.079Z,21.35
2022-09-07T20:45:58.587Z,21.31
2022-09-07T20:48:25.589Z,21.22
2022-09-07T20:51:13.015Z,21.18
2022-09-07T20:53:39.931Z,21.10
2022-09-07T20:56:23.905Z,21.02
2022-09-07T20:58:55.477Z,20.91
2022-09-07T21:01:22.535Z,20.77
2022-09-07T21:03:51.513Z,20.71
2022-09-07T21:06:19.185Z,20.64
2022-09-07T21:08:47.138Z,20.61
2022-09-07T21:11:16.753Z,20.53
2022-09-07T21:13:43.705Z,20.49
2022-09-07T21:16:12.646Z,20.47
2022-09-07T21:18:39.841Z,20.40
2022-09-07T21:21:22.405Z,20.38
2022-09-07T21:23:49.347Z,20.36
2022-09-07T21:26:20.830Z,20.36
2022-09-07T21:28:47.213Z,20.34
2022-09-07T21:31:13.635Z,20.28
2022-09-07T21:33:40.096Z,20.22
2022-09-07T21:36:12.418Z,20.15
2022-09-07T21:38:41.119Z,20.07
2022-09-07T21:41:13.077Z,19.97
2022-09-07T21:43:39.615Z,19.89
2022-09-07T21:46:12.270Z,19.83
2022-09-07T21:48:39.241Z,19.76
2022-09-07T21:51:06.300Z,19.72
2022-09-07T21:53:33.311Z,19.64
2022-09-07T21:56:02.273Z,19.57
2022-09-07T21:58:29.675Z,19.51
2022-09-07T22:00:56.966Z,19.47
2022-09-07T22:03:25.237Z,19.42
2022-09-07T22:05:51.869Z,19.37
2022-09-07T22:08:18.863Z,19.31
2022-09-07T22:10:45.725Z,19.30
2022-09-07T22:13:12.119Z,19.27
2022-09-07T22:15:40.776Z,19.24
2022-09-07T22:18:11.363Z,19.22
2022-09-07T22:20:38.048Z,19.21
2022-09-07T22:23:07.119Z,19.22
2022-09-07T22:25:33.561Z,19.24
2022-09-07T22:28:00.121Z,19.24
2022-09-07T22:30:26.734Z,19.25
2022-09-07T22:32:53.400Z,19.26
2022-09-07T22:35:19.837Z,19.23
2022-09-07T22:37:46.348Z,19.23
2022-09-07T22:40:14.725Z,19.26
2022-09-07T22:42:41.852Z,19.28
2022-09-07T22:45:08.783Z,19.30
2022-09-07T22:47:35.171Z,19.32
2022-09-07T22:50:01.582Z,19.32
2022-09-07T22:52:27.967Z,19.34
2022-09-07T22:54:54.385Z,19.36
2022-09-07T22:57:20.784Z,19.37
2022-09-07T22:59:47.246Z,19.39
2022-09-07T23:02:13.632Z,19.38
2022-09-07T23:04:40.176Z,19.35
2022-09-07T23:07:07.650Z,19.35
2022-09-07T23:09:34.115Z,19.32
2022-09-07T23:12:00.541Z,19.30
2022-09-07T23:14:26.903Z,19.29
2022-09-07T23:16:53.321Z,19.28
2022-09-07T23:19:20.352Z,19.24
2022-09-07T23:21:47.286Z,19.22
2022-09-07T23:24:16.000Z,19.19
2022-09-07T23:26:42.884Z,19.16
2022-09-07T23:29:14.396Z,19.15
2022-09-07T23:31:41.561Z,19.14
2022-09-07T23:34:08.568Z,19.11
2022-09-07T23:36:34.942Z,19.09
2022-09-07T23:39:01.378Z,19.09
2022-09-07T23:41:28.792Z,19.06
2022-09-07T23:43:55.704Z,19.04
2022-09-07T23:46:22.450Z,19.03
2022-09-07T23:48:49.353Z,19.03
2022-09-07T23:51:19.909Z,19.03
2022-09-07T23:53:49.428Z,18.99
2022-09-07T23:56:15.913Z,18.96
2022-09-07T23:58:42.371Z,18.95
